sensor_id;sensor_type;location;lat;lon;timestamp;temperature;humidity
35607;DHT22;21729;58.392;15.656;2022-08-01T00:00:20;15.60;1.00
35607;DHT22;21729;58.392;15.656;2022-08-01T00:02:47;15.60;1.00
35607;DHT22;21729;58.392;15.656;2022-08-01T00:05:14;15.60;1.00
35607;DHT22;21729;58.392;15.656;2022-08-01T00:07:43;15.60;1.00
35607;DHT22;21729;58.392;15.656;2022-08-01T00:10:13;15.60;1.00
35607;DHT22;21729;58.392;15.656;2022-08-01T00:12:41;15.60;1.00
35607;DHT22;21729;58.392;15.656;2022-08-01T00:15:11;15.60;1.00
35607;DHT22;21729;58.392;15.656;2022-08-01T00:17:40;15.70;1.00
35607;DHT22;21729;58.392;15.656;2022-08-01T00:20:09;15.60;1.00
35607;DHT22;21729;58.392;15.656;2022-08-01T00:22:37;15.50;1.00
35607;DHT22;21729;58.392;15.656;2022-08-01T00:25:06;15.50;1.00
35607;DHT22;21729;58.392;15.656;2022-08-01T00:27:33;15.50;1.00
35607;DHT22;21729;58.392;15.656;2022-08-01T00:30:00;15.40;1.00
35607;DHT22;21729;58.392;15.656;2022-08-01T00:32:30;15.40;1.00
35607;DHT22;21729;58.392;15.656;2022-08-01T00:34:57;15.30;1.00
35607;DHT22;21729;58.392;15.656;2022-08-01T00:37:24;15.20;1.00
35607;DHT22;21729;58.392;15.656;2022-08-01T00:39:51;15.20;1.00
35607;DHT22;21729;58.392;15.656;2022-08-01T00:42:20;15.10;1.00
35607;DHT22;21729;58.392;15.656;2022-08-01T00:44:47;15.10;1.00
35607;DHT22;21729;58.392;15.656;2022-08-01T00:47:14;15.10;1.00
35607;DHT22;21729;58.392;15.656;2022-08-01T00:49:41;15.10;1.00
35607;DHT22;21729;58.392;15.656;2022-08-01T00:52:08;15.00;1.00
35607;DHT22;21729;58.392;15.656;2022-08-01T00:54:36;15.00;1.00
35607;DHT22;21729;58.392;15.656;2022-08-01T00:57:03;14.90;1.00
35607;DHT22;21729;58.392;15.656;2022-08-01T00:59:33;14.90;1.00
35607;DHT22;21729;58.392;15.656;2022-08-01T01:02:01;14.90;1.00
35607;DHT22;21729;58.392;15.656;2022-08-01T01:04:28;14.90;1.00
35607;DHT22;21729;58.392;15.656;2022-08-01T01:06:59;14.90;1.00
35607;DHT22;21729;58.392;15.656;2022-08-01T01:09:36;14.90;1.00
35607;DHT22;21729;58.392;15.656;2022-08-01T01:12:13;14.90;1.00
35607;DHT22;21729;58.392;15.656;2022-08-01T01:14:48;14.90;1.00
35607;DHT22;21729;58.392;15.656;2022-08-01T01:17:21;14.90;1.00
35607;DHT22;21729;58.392;15.656;2022-08-01T01:19:51;14.90;1.00
35607;DHT22;21729;58.392;15.656;2022-08-01T01:22:34;14.80;1.00
35607;DHT22;21729;58.392;15.656;2022-08-01T01:25:16;14.80;1.00
35607;DHT22;21729;58.392;15.656;2022-08-01T01:27:51;14.80;1.00
35607;DHT22;21729;58.392;15.656;2022-08-01T01:30:25;14.80;1.00
35607;DHT22;21729;58.392;15.656;2022-08-01T01:32:58;14.80;1.00
35607;DHT22;21729;58.392;15.656;2022-08-01T01:35:28;14.80;99.90
35607;DHT22;21729;58.392;15.656;2022-08-01T01:38:02;14.70;1.00
35607;DHT22;21729;58.392;15.656;2022-08-01T01:40:31;14.80;99.90
35607;DHT22;21729;58.392;15.656;2022-08-01T01:43:00;14.80;99.90
35607;DHT22;21729;58.392;15.656;2022-08-01T01:45:28;14.70;99.90
35607;DHT22;21729;58.392;15.656;2022-08-01T01:47:57;14.70;99.90
35607;DHT22;21729;58.392;15.656;2022-08-01T01:50:25;14.70;99.90
35607;DHT22;21729;58.392;15.656;2022-08-01T01:52:53;14.70;99.90
35607;DHT22;21729;58.392;15.656;2022-08-01T01:55:23;14.70;99.90
35607;DHT22;21729;58.392;15.656;2022-08-01T01:57:52;14.70;99.90
35607;DHT22;21729;58.392;15.656;2022-08-01T02:00:20;14.70;99.90
35607;DHT22;21729;58.392;15.656;2022-08-01T02:02:49;14.60;99.90
35607;DHT22;21729;58.392;15.656;2022-08-01T02:05:18;14.60;99.90
35607;DHT22;21729;58.392;15.656;2022-08-01T02:07:48;14.50;99.90
35607;DHT22;21729;58.392;15.656;2022-08-01T02:10:16;14.50;99.90
35607;DHT22;21729;58.392;15.656;2022-08-01T02:12:46;14.50;99.90
35607;DHT22;21729;58.392;15.656;2022-08-01T02:15:16;14.50;99.90
35607;DHT22;21729;58.392;15.656;2022-08-01T02:17:46;14.40;99.90
35607;DHT22;21729;58.392;15.656;2022-08-01T02:20:16;14.40;99.90
35607;DHT22;21729;58.392;15.656;2022-08-01T02:22:47;14.30;99.90
35607;DHT22;21729;58.392;15.656;2022-08-01T02:25:20;14.30;99.90
35607;DHT22;21729;58.392;15.656;2022-08-01T02:27:52;14.30;99.90
35607;DHT22;21729;58.392;15.656;2022-08-01T02:30:23;14.20;99.90
35607;DHT22;21729;58.392;15.656;2022-08-01T02:32:53;14.20;99.90
35607;DHT22;21729;58.392;15.656;2022-08-01T02:35:29;14.20;99.90
35607;DHT22;21729;58.392;15.656;2022-08-01T02:37:57;14.20;99.90
35607;DHT22;21729;58.392;15.656;2022-08-01T02:40:27;14.30;99.90
35607;DHT22;21729;58.392;15.656;2022-08-01T02:42:56;14.30;99.90
35607;DHT22;21729;58.392;15.656;2022-08-01T02:45:25;14.40;99.90
35607;DHT22;21729;58.392;15.656;2022-08-01T02:47:57;14.50;99.90
35607;DHT22;21729;58.392;15.656;2022-08-01T02:50:28;14.60;99.90
35607;DHT22;21729;58.392;15.656;2022-08-01T02:52:57;14.70;99.90
35607;DHT22;21729;58.392;15.656;2022-08-01T02:55:25;14.70;99.90
35607;DHT22;21729;58.392;15.656;2022-08-01T02:57:54;14.70;99.90
35607;DHT22;21729;58.392;15.656;2022-08-01T03:00:22;14.80;99.90
35607;DHT22;21729;58.392;15.656;2022-08-01T03:02:51;14.70;99.90
35607;DHT22;21729;58.392;15.656;2022-08-01T03:05:21;14.80;99.90
35607;DHT22;21729;58.392;15.656;2022-08-01T03:07:51;14.80;99.90
35607;DHT22;21729;58.392;15.656;2022-08-01T03:10:18;14.80;99.90
35607;DHT22;21729;58.392;15.656;2022-08-01T03:12:47;14.80;99.90
35607;DHT22;21729;58.392;15.656;2022-08-01T03:15:16;14.80;99.90
35607;DHT22;21729;58.392;15.656;2022-08-01T03:17:45;14.80;99.90
35607;DHT22;21729;58.392;15.656;2022-08-01T03:20:15;14.80;99.90
35607;DHT22;21729;58.392;15.656;2022-08-01T03:22:43;14.80;99.90
35607;DHT22;21729;58.392;15.656;2022-08-01T03:25:13;14.80;99.90
35607;DHT22;21729;58.392;15.656;2022-08-01T03:27:43;14.90;99.90
35607;DHT22;21729;58.392;15.656;2022-08-01T03:30:13;14.90;99.90
35607;DHT22;21729;58.392;15.656;2022-08-01T03:32:41;15.00;99.90
35607;DHT22;21729;58.392;15.656;2022-08-01T03:35:08;15.00;99.90
35607;DHT22;21729;58.392;15.656;2022-08-01T03:37:42;15.00;99.90
35607;DHT22;21729;58.392;15.656;2022-08-01T03:40:16;15.00;99.90
35607;DHT22;21729;58.392;15.656;2022-08-01T03:42:46;15.10;99.90
35607;DHT22;21729;58.392;15.656;2022-08-01T03:45:20;15.10;99.90
35607;DHT22;21729;58.392;15.656;2022-08-01T03:47:50;15.10;99.90
35607;DHT22;21729;58.392;15.656;2022-08-01T03:50:21;15.10;99.90
35607;DHT22;21729;58.392;15.656;2022-08-01T03:52:50;15.20;99.90
35607;DHT22;21729;58.392;15.656;2022-08-01T03:55:20;15.20;99.90
35607;DHT22;21729;58.392;15.656;2022-08-01T03:57:48;15.20;99.90
35607;DHT22;21729;58.392;15.656;2022-08-01T04:00:16;15.30;99.90
35607;DHT22;21729;58.392;15.656;2022-08-01T04:02:46;15.30;99.90
35607;DHT22;21729;58.392;15.656;2022-08-01T04:05:14;15.30;99.90
35607;DHT22;21729;58.392;15.656;2022-08-01T04:07:45;15.30;99.90
35607;DHT22;21729;58.392;15.656;2022-08-01T04:10:13;15.40;99.90
35607;DHT22;21729;58.392;15.656;2022-08-01T04:12:41;15.30;99.90
35607;DHT22;21729;58.392;15.656;2022-08-01T04:15:09;15.30;99.90
35607;DHT22;21729;58.392;15.656;2022-08-01T04:17:36;15.30;99.90
35607;DHT22;21729;58.392;15.656;2022-08-01T04:20:03;15.40;99.90
35607;DHT22;21729;58.392;15.656;2022-08-01T04:22:31;15.40;99.90
35607;DHT22;21729;58.392;15.656;2022-08-01T04:25:00;15.30;99.90
35607;DHT22;21729;58.392;15.656;2022-08-01T04:27:32;15.30;99.90
35607;DHT22;21729;58.392;15.656;2022-08-01T04:30:06;15.30;99.90
35607;DHT22;21729;58.392;15.656;2022-08-01T04:32:35;15.30;99.90
35607;DHT22;21729;58.392;15.656;2022-08-01T04:35:06;15.30;99.90
35607;DHT22;21729;58.392;15.656;2022-08-01T04:37:35;15.30;99.90
35607;DHT22;21729;58.392;15.656;2022-08-01T04:40:05;15.40;99.90
35607;DHT22;21729;58.392;15.656;2022-08-01T04:42:33;15.40;99.90
35607;DHT22;21729;58.392;15.656;2022-08-01T04:45:00;15.50;99.90
35607;DHT22;21729;58.392;15.656;2022-08-01T04:47:29;15.60;99.90
35607;DHT22;21729;58.392;15.656;2022-08-01T04:49:57;15.60;99.90
35607;DHT22;21729;58.392;15.656;2022-08-01T04:52:32;15.70;99.90
35607;DHT22;21729;58.392;15.656;2022-08-01T04:55:00;15.80;99.90
35607;DHT22;21729;58.392;15.656;2022-08-01T04:57:27;15.90;99.90
35607;DHT22;21729;58.392;15.656;2022-08-01T04:59:54;16.00;99.90
35607;DHT22;21729;58.392;15.656;2022-08-01T05:02:23;16.10;99.90
35607;DHT22;21729;58.392;15.656;2022-08-01T05:04:55;16.30;99.90
35607;DHT22;21729;58.392;15.656;2022-08-01T05:07:22;16.60;99.90
35607;DHT22;21729;58.392;15.656;2022-08-01T05:09:50;17.00;99.90
35607;DHT22;21729;58.392;15.656;2022-08-01T05:12:17;17.20;99.90
35607;DHT22;21729;58.392;15.656;2022-08-01T05:14:44;17.70;99.90
35607;DHT22;21729;58.392;15.656;2022-08-01T05:17:11;17.80;99.90
35607;DHT22;21729;58.392;15.656;2022-08-01T05:19:39;18.00;99.90
35607;DHT22;21729;58.392;15.656;2022-08-01T05:22:09;18.10;99.90
35607;DHT22;21729;58.392;15.656;2022-08-01T05:24:38;18.10;99.90
35607;DHT22;21729;58.392;15.656;2022-08-01T05:27:05;18.00;99.90
35607;DHT22;21729;58.392;15.656;2022-08-01T05:29:33;18.10;99.90
35607;DHT22;21729;58.392;15.656;2022-08-01T05:32:00;18.30;99.90
35607;DHT22;21729;58.392;15.656;2022-08-01T05:34:27;18.40;99.90
35607;DHT22;21729;58.392;15.656;2022-08-01T05:36:55;18.60;99.90
35607;DHT22;21729;58.392;15.656;2022-08-01T05:39:23;18.70;99.90
35607;DHT22;21729;58.392;15.656;2022-08-01T05:41:50;18.90;99.90
35607;DHT22;21729;58.392;15.656;2022-08-01T05:44:17;19.10;99.90
35607;DHT22;21729;58.392;15.656;2022-08-01T05:46:44;19.30;99.90
35607;DHT22;21729;58.392;15.656;2022-08-01T05:49:11;19.20;99.90
35607;DHT22;21729;58.392;15.656;2022-08-01T05:51:39;19.20;99.90
35607;DHT22;21729;58.392;15.656;2022-08-01T05:54:06;19.10;99.90
35607;DHT22;21729;58.392;15.656;2022-08-01T05:56:34;18.90;99.90
35607;DHT22;21729;58.392;15.656;2022-08-01T05:59:01;18.90;99.90
35607;DHT22;21729;58.392;15.656;2022-08-01T06:01:29;18.60;99.90
35607;DHT22;21729;58.392;15.656;2022-08-01T06:03:56;18.50;99.90
35607;DHT22;21729;58.392;15.656;2022-08-01T06:06:23;18.50;99.90
35607;DHT22;21729;58.392;15.656;2022-08-01T06:08:50;18.40;99.90
35607;DHT22;21729;58.392;15.656;2022-08-01T06:11:17;18.30;99.90
35607;DHT22;21729;58.392;15.656;2022-08-01T06:13:46;18.30;99.90
35607;DHT22;21729;58.392;15.656;2022-08-01T06:16:13;18.30;99.90
35607;DHT22;21729;58.392;15.656;2022-08-01T06:18:40;18.20;99.90
35607;DHT22;21729;58.392;15.656;2022-08-01T06:21:07;18.30;99.90
35607;DHT22;21729;58.392;15.656;2022-08-01T06:23:34;18.30;99.90
35607;DHT22;21729;58.392;15.656;2022-08-01T06:26:01;18.40;99.90
35607;DHT22;21729;58.392;15.656;2022-08-01T06:28:28;18.50;99.90
35607;DHT22;21729;58.392;15.656;2022-08-01T06:30:57;18.60;99.90
35607;DHT22;21729;58.392;15.656;2022-08-01T06:33:25;18.80;99.90
35607;DHT22;21729;58.392;15.656;2022-08-01T06:35:52;19.10;99.90
35607;DHT22;21729;58.392;15.656;2022-08-01T06:38:19;19.20;99.90
35607;DHT22;21729;58.392;15.656;2022-08-01T06:40:46;19.20;99.90
35607;DHT22;21729;58.392;15.656;2022-08-01T06:43:13;19.40;99.90
35607;DHT22;21729;58.392;15.656;2022-08-01T06:45:41;19.50;99.90
35607;DHT22;21729;58.392;15.656;2022-08-01T06:48:09;19.80;99.90
35607;DHT22;21729;58.392;15.656;2022-08-01T06:50:37;19.80;99.90
35607;DHT22;21729;58.392;15.656;2022-08-01T06:53:04;20.10;99.90
35607;DHT22;21729;58.392;15.656;2022-08-01T06:55:31;20.00;99.90
35607;DHT22;21729;58.392;15.656;2022-08-01T06:57:58;20.50;99.90
35607;DHT22;21729;58.392;15.656;2022-08-01T07:00:26;21.10;99.20
35607;DHT22;21729;58.392;15.656;2022-08-01T07:02:55;21.30;99.90
35607;DHT22;21729;58.392;15.656;2022-08-01T07:05:24;21.20;99.90
35607;DHT22;21729;58.392;15.656;2022-08-01T07:07:51;20.90;99.90
35607;DHT22;21729;58.392;15.656;2022-08-01T07:10:18;20.90;99.90
35607;DHT22;21729;58.392;15.656;2022-08-01T07:12:45;21.30;99.90
35607;DHT22;21729;58.392;15.656;2022-08-01T07:15:12;21.70;99.90
35607;DHT22;21729;58.392;15.656;2022-08-01T07:17:41;21.80;99.90
35607;DHT22;21729;58.392;15.656;2022-08-01T07:20:10;21.40;89.90
35607;DHT22;21729;58.392;15.656;2022-08-01T07:22:39;21.10;99.90
35607;DHT22;21729;58.392;15.656;2022-08-01T07:25:07;20.90;99.90
35607;DHT22;21729;58.392;15.656;2022-08-01T07:27:34;20.60;99.90
35607;DHT22;21729;58.392;15.656;2022-08-01T07:30:02;20.60;99.90
35607;DHT22;21729;58.392;15.656;2022-08-01T07:32:30;20.70;99.90
35607;DHT22;21729;58.392;15.656;2022-08-01T07:34:57;20.90;99.90
35607;DHT22;21729;58.392;15.656;2022-08-01T07:37:24;21.20;99.90
35607;DHT22;21729;58.392;15.656;2022-08-01T07:39:53;21.60;97.20
35607;DHT22;21729;58.392;15.656;2022-08-01T07:42:20;21.90;53.50
35607;DHT22;21729;58.392;15.656;2022-08-01T07:44:47;22.40;99.90
35607;DHT22;21729;58.392;15.656;2022-08-01T07:47:14;22.60;30.30
35607;DHT22;21729;58.392;15.656;2022-08-01T07:49:41;23.00;36.30
35607;DHT22;21729;58.392;15.656;2022-08-01T07:52:08;22.30;71.20
35607;DHT22;21729;58.392;15.656;2022-08-01T07:54:36;22.30;55.90
35607;DHT22;21729;58.392;15.656;2022-08-01T07:57:05;22.20;54.70
35607;DHT22;21729;58.392;15.656;2022-08-01T07:59:32;22.30;20.00
35607;DHT22;21729;58.392;15.656;2022-08-01T08:01:59;22.30;90.90
35607;DHT22;21729;58.392;15.656;2022-08-01T08:04:27;22.20;65.20
35607;DHT22;21729;58.392;15.656;2022-08-01T08:06:54;23.90;18.80
35607;DHT22;21729;58.392;15.656;2022-08-01T08:09:21;23.90;1.00
35607;DHT22;21729;58.392;15.656;2022-08-01T08:11:48;23.80;1.00
35607;DHT22;21729;58.392;15.656;2022-08-01T08:14:17;23.40;1.00
35607;DHT22;21729;58.392;15.656;2022-08-01T08:16:45;23.20;1.00
35607;DHT22;21729;58.392;15.656;2022-08-01T08:19:12;23.30;4.80
35607;DHT22;21729;58.392;15.656;2022-08-01T08:21:39;23.70;1.00
35607;DHT22;21729;58.392;15.656;2022-08-01T08:24:07;23.30;2.60
35607;DHT22;21729;58.392;15.656;2022-08-01T08:26:47;23.00;1.00
35607;DHT22;21729;58.392;15.656;2022-08-01T08:29:14;23.40;6.40
35607;DHT22;21729;58.392;15.656;2022-08-01T08:31:43;23.40;8.90
35607;DHT22;21729;58.392;15.656;2022-08-01T08:34:10;24.40;1.00
35607;DHT22;21729;58.392;15.656;2022-08-01T08:36:37;27.60;1.00
35607;DHT22;21729;58.392;15.656;2022-08-01T08:39:05;27.90;1.00
35607;DHT22;21729;58.392;15.656;2022-08-01T08:41:33;29.20;1.00
35607;DHT22;21729;58.392;15.656;2022-08-01T08:44:00;30.10;99.90
35607;DHT22;21729;58.392;15.656;2022-08-01T08:46:28;28.50;1.00
35607;DHT22;21729;58.392;15.656;2022-08-01T08:48:57;27.10;1.00
35607;DHT22;21729;58.392;15.656;2022-08-01T08:51:26;26.00;1.00
35607;DHT22;21729;58.392;15.656;2022-08-01T08:53:56;25.20;1.00
35607;DHT22;21729;58.392;15.656;2022-08-01T08:56:24;24.90;1.00
35607;DHT22;21729;58.392;15.656;2022-08-01T08:58:52;24.50;1.00
35607;DHT22;21729;58.392;15.656;2022-08-01T09:01:19;24.40;1.00
35607;DHT22;21729;58.392;15.656;2022-08-01T09:03:47;24.00;1.00
35607;DHT22;21729;58.392;15.656;2022-08-01T09:06:16;23.70;1.00
35607;DHT22;21729;58.392;15.656;2022-08-01T09:08:43;23.30;1.00
35607;DHT22;21729;58.392;15.656;2022-08-01T09:11:10;23.50;1.00
35607;DHT22;21729;58.392;15.656;2022-08-01T09:13:37;23.90;1.00
35607;DHT22;21729;58.392;15.656;2022-08-01T09:16:05;23.80;1.00
35607;DHT22;21729;58.392;15.656;2022-08-01T09:18:33;23.90;1.00
35607;DHT22;21729;58.392;15.656;2022-08-01T09:21:13;24.20;1.00
35607;DHT22;21729;58.392;15.656;2022-08-01T09:23:44;23.90;1.00
35607;DHT22;21729;58.392;15.656;2022-08-01T09:26:14;23.80;1.00
35607;DHT22;21729;58.392;15.656;2022-08-01T09:28:42;24.20;1.00
35607;DHT22;21729;58.392;15.656;2022-08-01T09:31:11;24.00;1.00
35607;DHT22;21729;58.392;15.656;2022-08-01T09:33:53;24.30;1.00
35607;DHT22;21729;58.392;15.656;2022-08-01T09:36:22;24.40;1.00
35607;DHT22;21729;58.392;15.656;2022-08-01T09:38:51;24.20;1.00
35607;DHT22;21729;58.392;15.656;2022-08-01T09:41:28;24.40;1.00
35607;DHT22;21729;58.392;15.656;2022-08-01T09:43:56;24.40;1.00
35607;DHT22;21729;58.392;15.656;2022-08-01T09:46:25;24.50;1.00
35607;DHT22;21729;58.392;15.656;2022-08-01T09:48:59;24.30;1.00
35607;DHT22;21729;58.392;15.656;2022-08-01T09:51:31;24.20;1.00
35607;DHT22;21729;58.392;15.656;2022-08-01T09:54:01;24.00;1.00
35607;DHT22;21729;58.392;15.656;2022-08-01T09:56:36;23.80;1.00
35607;DHT22;21729;58.392;15.656;2022-08-01T09:59:04;24.00;1.00
35607;DHT22;21729;58.392;15.656;2022-08-01T10:01:42;23.50;1.00
35607;DHT22;21729;58.392;15.656;2022-08-01T10:04:12;23.40;1.00
35607;DHT22;21729;58.392;15.656;2022-08-01T10:06:40;23.80;1.00
35607;DHT22;21729;58.392;15.656;2022-08-01T10:09:10;23.90;1.00
35607;DHT22;21729;58.392;15.656;2022-08-01T10:11:40;23.80;1.00
35607;DHT22;21729;58.392;15.656;2022-08-01T10:14:08;24.20;1.00
35607;DHT22;21729;58.392;15.656;2022-08-01T10:16:38;24.40;1.00
35607;DHT22;21729;58.392;15.656;2022-08-01T10:19:06;24.30;1.00
35607;DHT22;21729;58.392;15.656;2022-08-01T10:21:34;24.60;1.00
35607;DHT22;21729;58.392;15.656;2022-08-01T10:24:05;24.90;1.00
35607;DHT22;21729;58.392;15.656;2022-08-01T10:26:34;24.70;1.00
35607;DHT22;21729;58.392;15.656;2022-08-01T10:29:02;25.20;1.00
35607;DHT22;21729;58.392;15.656;2022-08-01T10:31:29;25.60;1.00
35607;DHT22;21729;58.392;15.656;2022-08-01T10:33:59;25.60;1.00
35607;DHT22;21729;58.392;15.656;2022-08-01T10:36:27;25.20;1.00
35607;DHT22;21729;58.392;15.656;2022-08-01T10:38:55;24.80;1.00
35607;DHT22;21729;58.392;15.656;2022-08-01T10:41:24;24.50;1.00
35607;DHT22;21729;58.392;15.656;2022-08-01T10:43:53;23.90;1.00
35607;DHT22;21729;58.392;15.656;2022-08-01T10:46:21;23.70;1.00
35607;DHT22;21729;58.392;15.656;2022-08-01T10:48:55;23.70;1.00
35607;DHT22;21729;58.392;15.656;2022-08-01T10:51:23;23.80;1.00
35607;DHT22;21729;58.392;15.656;2022-08-01T10:53:52;24.30;1.00
35607;DHT22;21729;58.392;15.656;2022-08-01T10:56:21;24.90;1.00
35607;DHT22;21729;58.392;15.656;2022-08-01T10:58:48;25.00;1.00
35607;DHT22;21729;58.392;15.656;2022-08-01T11:01:19;24.80;1.00
35607;DHT22;21729;58.392;15.656;2022-08-01T11:04:03;24.50;1.00
35607;DHT22;21729;58.392;15.656;2022-08-01T11:06:44;24.30;1.00
35607;DHT22;21729;58.392;15.656;2022-08-01T11:09:23;24.40;1.00
35607;DHT22;21729;58.392;15.656;2022-08-01T11:11:58;24.30;1.00
35607;DHT22;21729;58.392;15.656;2022-08-01T11:14:27;24.40;1.00
35607;DHT22;21729;58.392;15.656;2022-08-01T11:16:56;24.40;1.00
35607;DHT22;21729;58.392;15.656;2022-08-01T11:20:08;24.40;1.00
35607;DHT22;21729;58.392;15.656;2022-08-01T11:26:13;23.90;1.00
35607;DHT22;21729;58.392;15.656;2022-08-01T11:28:42;23.60;1.00
35607;DHT22;21729;58.392;15.656;2022-08-01T11:31:28;23.20;1.00
35607;DHT22;21729;58.392;15.656;2022-08-01T11:33:57;23.10;1.00
35607;DHT22;21729;58.392;15.656;2022-08-01T11:36:24;23.10;1.00
35607;DHT22;21729;58.392;15.656;2022-08-01T11:39:16;23.70;1.00
35607;DHT22;21729;58.392;15.656;2022-08-01T11:41:45;24.10;1.00
35607;DHT22;21729;58.392;15.656;2022-08-01T11:44:21;24.10;1.00
35607;DHT22;21729;58.392;15.656;2022-08-01T11:47:03;23.50;1.00
35607;DHT22;21729;58.392;15.656;2022-08-01T11:49:47;22.90;29.60
35607;DHT22;21729;58.392;15.656;2022-08-01T11:52:18;22.50;99.90
35607;DHT22;21729;58.392;15.656;2022-08-01T11:54:46;22.10;99.90
35607;DHT22;21729;58.392;15.656;2022-08-01T11:57:17;21.80;99.90
35607;DHT22;21729;58.392;15.656;2022-08-01T11:59:46;21.40;99.90
35607;DHT22;21729;58.392;15.656;2022-08-01T12:02:19;21.00;99.90
35607;DHT22;21729;58.392;15.656;2022-08-01T12:04:51;20.60;99.90
35607;DHT22;21729;58.392;15.656;2022-08-01T12:07:19;20.30;1.00
35607;DHT22;21729;58.392;15.656;2022-08-01T12:09:46;20.30;1.00
35607;DHT22;21729;58.392;15.656;2022-08-01T12:12:16;20.20;1.00
35607;DHT22;21729;58.392;15.656;2022-08-01T12:14:50;20.00;1.00
35607;DHT22;21729;58.392;15.656;2022-08-01T12:17:21;19.90;2.70
35607;DHT22;21729;58.392;15.656;2022-08-01T12:19:55;19.80;6.80
35607;DHT22;21729;58.392;15.656;2022-08-01T12:22:23;19.70;69.20
35607;DHT22;21729;58.392;15.656;2022-08-01T12:24:51;19.60;94.00
35607;DHT22;21729;58.392;15.656;2022-08-01T12:27:27;19.70;86.70
35607;DHT22;21729;58.392;15.656;2022-08-01T12:29:55;19.60;93.00
35607;DHT22;21729;58.392;15.656;2022-08-01T12:32:24;19.50;92.80
35607;DHT22;21729;58.392;15.656;2022-08-01T12:34:53;19.60;96.50
35607;DHT22;21729;58.392;15.656;2022-08-01T12:37:22;19.30;97.30
35607;DHT22;21729;58.392;15.656;2022-08-01T12:39:49;19.50;99.90
35607;DHT22;21729;58.392;15.656;2022-08-01T12:42:16;19.50;99.90
35607;DHT22;21729;58.392;15.656;2022-08-01T12:44:45;19.40;99.90
35607;DHT22;21729;58.392;15.656;2022-08-01T12:47:13;19.50;99.90
35607;DHT22;21729;58.392;15.656;2022-08-01T12:49:42;19.70;99.90
35607;DHT22;21729;58.392;15.656;2022-08-01T12:52:11;19.90;99.90
35607;DHT22;21729;58.392;15.656;2022-08-01T12:55:03;20.10;99.90
35607;DHT22;21729;58.392;15.656;2022-08-01T12:57:30;20.00;95.60
35607;DHT22;21729;58.392;15.656;2022-08-01T13:00:12;19.90;79.70
35607;DHT22;21729;58.392;15.656;2022-08-01T13:02:40;19.50;99.90
35607;DHT22;21729;58.392;15.656;2022-08-01T13:05:08;19.40;99.90
35607;DHT22;21729;58.392;15.656;2022-08-01T13:07:38;19.60;99.90
35607;DHT22;21729;58.392;15.656;2022-08-01T13:10:08;19.70;99.90
35607;DHT22;21729;58.392;15.656;2022-08-01T13:12:37;19.70;99.90
35607;DHT22;21729;58.392;15.656;2022-08-01T13:15:18;19.90;99.90
35607;DHT22;21729;58.392;15.656;2022-08-01T13:17:46;19.90;99.90
35607;DHT22;21729;58.392;15.656;2022-08-01T13:20:22;20.10;99.90
35607;DHT22;21729;58.392;15.656;2022-08-01T13:22:49;20.00;99.90
35607;DHT22;21729;58.392;15.656;2022-08-01T13:25:19;20.20;99.90
35607;DHT22;21729;58.392;15.656;2022-08-01T13:27:46;20.30;99.90
35607;DHT22;21729;58.392;15.656;2022-08-01T13:30:14;20.40;84.50
35607;DHT22;21729;58.392;15.656;2022-08-01T13:32:42;20.70;88.10
35607;DHT22;21729;58.392;15.656;2022-08-01T13:35:11;20.60;90.80
35607;DHT22;21729;58.392;15.656;2022-08-01T13:37:40;20.60;71.20
35607;DHT22;21729;58.392;15.656;2022-08-01T13:40:09;20.90;1.00
35607;DHT22;21729;58.392;15.656;2022-08-01T13:42:38;20.90;5.90
35607;DHT22;21729;58.392;15.656;2022-08-01T13:45:06;21.10;1.00
35607;DHT22;21729;58.392;15.656;2022-08-01T13:47:36;21.40;1.00
35607;DHT22;21729;58.392;15.656;2022-08-01T13:50:04;22.10;1.00
35607;DHT22;21729;58.392;15.656;2022-08-01T13:52:31;22.10;1.00
35607;DHT22;21729;58.392;15.656;2022-08-01T13:54:59;21.60;1.00
35607;DHT22;21729;58.392;15.656;2022-08-01T13:57:27;21.30;1.00
35607;DHT22;21729;58.392;15.656;2022-08-01T13:59:55;21.20;1.00
35607;DHT22;21729;58.392;15.656;2022-08-01T14:02:25;21.00;1.00
35607;DHT22;21729;58.392;15.656;2022-08-01T14:04:52;20.70;1.00
35607;DHT22;21729;58.392;15.656;2022-08-01T14:07:20;21.00;1.00
35607;DHT22;21729;58.392;15.656;2022-08-01T14:09:47;21.50;1.00
35607;DHT22;21729;58.392;15.656;2022-08-01T14:12:14;21.40;1.00
35607;DHT22;21729;58.392;15.656;2022-08-01T14:14:41;21.30;1.00
35607;DHT22;21729;58.392;15.656;2022-08-01T14:17:09;21.30;1.00
35607;DHT22;21729;58.392;15.656;2022-08-01T14:19:36;21.20;1.00
35607;DHT22;21729;58.392;15.656;2022-08-01T14:22:04;21.20;1.00
35607;DHT22;21729;58.392;15.656;2022-08-01T14:24:31;21.10;1.00
35607;DHT22;21729;58.392;15.656;2022-08-01T14:26:58;21.20;1.00
35607;DHT22;21729;58.392;15.656;2022-08-01T14:29:25;21.40;1.00
35607;DHT22;21729;58.392;15.656;2022-08-01T14:31:52;21.50;1.00
35607;DHT22;21729;58.392;15.656;2022-08-01T14:34:20;21.50;1.00
35607;DHT22;21729;58.392;15.656;2022-08-01T14:36:47;21.40;1.00
35607;DHT22;21729;58.392;15.656;2022-08-01T14:39:14;21.50;1.00
35607;DHT22;21729;58.392;15.656;2022-08-01T14:41:41;21.70;1.00
35607;DHT22;21729;58.392;15.656;2022-08-01T14:44:08;21.90;1.00
35607;DHT22;21729;58.392;15.656;2022-08-01T14:46:35;21.80;1.00
35607;DHT22;21729;58.392;15.656;2022-08-01T14:49:02;21.70;1.00
35607;DHT22;21729;58.392;15.656;2022-08-01T14:51:31;21.80;1.00
35607;DHT22;21729;58.392;15.656;2022-08-01T14:54:00;21.80;1.00
35607;DHT22;21729;58.392;15.656;2022-08-01T14:56:27;21.80;1.00
35607;DHT22;21729;58.392;15.656;2022-08-01T14:58:54;21.70;1.00
35607;DHT22;21729;58.392;15.656;2022-08-01T15:01:21;21.70;1.00
35607;DHT22;21729;58.392;15.656;2022-08-01T15:03:48;21.70;1.00
35607;DHT22;21729;58.392;15.656;2022-08-01T15:06:17;21.60;1.00
35607;DHT22;21729;58.392;15.656;2022-08-01T15:08:46;21.40;99.90
35607;DHT22;21729;58.392;15.656;2022-08-01T15:11:13;21.30;70.60
35607;DHT22;21729;58.392;15.656;2022-08-01T15:13:40;21.50;99.90
35607;DHT22;21729;58.392;15.656;2022-08-01T15:16:07;21.40;99.90
35607;DHT22;21729;58.392;15.656;2022-08-01T15:18:34;21.30;99.90
35607;DHT22;21729;58.392;15.656;2022-08-01T15:21:01;21.20;99.90
35607;DHT22;21729;58.392;15.656;2022-08-01T15:23:28;21.30;99.90
35607;DHT22;21729;58.392;15.656;2022-08-01T15:25:57;21.20;23.60
35607;DHT22;21729;58.392;15.656;2022-08-01T15:28:24;21.00;16.90
35607;DHT22;21729;58.392;15.656;2022-08-01T15:30:51;20.90;12.10
35607;DHT22;21729;58.392;15.656;2022-08-01T15:33:18;20.50;79.30
35607;DHT22;21729;58.392;15.656;2022-08-01T15:35:47;20.40;80.50
35607;DHT22;21729;58.392;15.656;2022-08-01T15:38:14;20.30;99.90